LFSG/EPL METAR and TAF weather

Enter ICAO airport designator
Station Type Date Time Source
LFSG METAR 2019/02/20 17:00 UTC NOAA

LFSG 201700Z AUTO 11003KT CAVOK 10/05 Q1024


Station Type Date Time Source
LFSG Decoded METAR 2019/02/20 17:00 UTC NOAA

Station name not available
Feb 20, 2019 - 12:00 PM EST / 2019.02.20 1700 UTC
Wind: from the ESE (110 degrees) at 3 MPH (3 KT):0
Visibility: greater than 7 mile(s):0
Temperature: 50 F (10 C)
Dew Point: 41 F (5 C)
Relative Humidity: 71%
Pressure (altimeter): 30.24 in. Hg (1024 hPa)
ob: LFSG 201700Z AUTO 11003KT CAVOK 10/05 Q1024
cycle: 17

Station Type Date Time Source
LFSG TAF UTC NOAA

Error!


Example: see airport list